Главная страница
METAR-TAF:

METAR-TAF

Аэропорты :

Мушёэн, Норвегия

широта: 65-48N, долгота: 013-08E, высота над уровнем моря: 70 м

Текущие метеонаблюдения

Эта сводка был подготовлена 48 минут назад, в 15:50 UTC
Ветер 6 Узел от юго-западный, изменяющийся между юго-юго-восточный и западный-юго-западный
Температура 23°C
Влажность 31%
Давление 1008 hPa
Видимость 10 км и более

METAR: ENMS 221550Z AUTO 22006KT 160V250 9999 NCD 23/05 Q1008 RMK WIND 412FT VRB04KT

Время: 18:38 (16:38 UTC)

Прогноз

Эта сводка был подготовлена 8 часа и 38 минут назад, в 08:00 UTC
Прогноз действительный с 22-го 09 UTC до 22-го 15 UTC
Ветер 3 Узел от южный
Видимость 10 км и более
Нет облачности ниже 1500 м, и нет кучево-дождевой облачности

TAF: ENMS 220800Z 2209/2215 18003KT CAVOK

Метеонаблюдения и прогнозы для более 4000 аэропортов (сводки METAR и TAF).

Имеющиеся станции представлены на карте желтыми и красными точками.

Чтобы увидеть название станции, наведите на нее мышь.

Затем щелкните, чтобы увидеть метеонаблюдения и метеопрогнозы.

Управление картой: чтобы увеличить масштаб, щелкните зеленые кнопки с черным крестиком; чтобы уменьшить масштаб, щелкните зеленую кнопку с тире; для просмотра соседних карт щелкайте зеленые стрелки.


METAR-TAF: